Time;durP1;ratioP1;P1;durP2;ratioP2;P2;SDS_P1;SDS_P2;PMS_P1;PMS_P2;Temp;Humidity;BMP_temperature;BMP_pressure;BME280_temperature;BME280_humidity;BME280_pressure;Samples;Min_cycle;Max_cycle;Signal;HPM_P1;HPM_P2
2021/05/17 00:00:51;;;;;;;0.90;0.40;;;22.20;50.10;;;;;;5032280;28;20475;-39
2021/05/17 00:03:18;;;;;;;0.65;0.40;;;22.20;50.10;;;;;;5030442;28;20387;-40
2021/05/17 00:05:44;;;;;;;0.90;0.50;;;22.20;50.10;;;;;;5032015;28;20390;-41
2021/05/17 00:08:11;;;;;;;2.67;0.50;;;22.20;50.00;;;;;;5031202;28;20422;-52
2021/05/17 00:10:37;;;;;;;0.85;0.47;;;22.20;50.10;;;;;;5031609;28;20125;-39
2021/05/17 00:13:04;;;;;;;4.47;0.70;;;22.20;50.00;;;;;;5031130;28;20034;-40
2021/05/17 00:15:30;;;;;;;0.50;0.47;;;22.20;50.00;;;;;;5030857;28;20025;-45
2021/05/17 00:17:56;;;;;;;1.50;0.35;;;22.20;49.90;;;;;;5037089;28;20033;-41
2021/05/17 00:20:23;;;;;;;1.25;0.50;;;22.20;49.90;;;;;;5031243;28;20033;-41
2021/05/17 00:22:50;;;;;;;3.80;1.42;;;22.20;49.80;;;;;;5031959;28;20033;-40
2021/05/17 00:25:22;;;;;;;1.55;0.52;;;22.10;49.70;;;;;;5027971;28;20087;-44
2021/05/17 00:27:48;;;;;;;1.85;0.43;;;22.20;49.70;;;;;;5031721;28;20033;-40
2021/05/17 00:30:15;;;;;;;0.95;0.45;;;22.20;49.60;;;;;;5030557;28;20137;-39
2021/05/17 00:32:41;;;;;;;2.13;0.40;;;22.20;49.60;;;;;;5031591;28;20501;-40
2021/05/17 00:35:07;;;;;;;1.00;0.40;;;22.20;49.60;;;;;;5031470;28;20491;-40
2021/05/17 00:37:34;;;;;;;1.10;0.52;;;22.20;49.50;;;;;;5033076;28;20051;-43
2021/05/17 00:40:00;;;;;;;1.35;0.40;;;22.20;49.50;;;;;;5023513;28;20029;-39
2021/05/17 00:42:25;;;;;;;0.82;0.38;;;22.20;49.50;;;;;;5030950;28;20379;-39
2021/05/17 00:44:52;;;;;;;1.15;0.50;;;22.20;49.40;;;;;;5030870;28;20048;-40
2021/05/17 00:47:18;;;;;;;1.40;0.40;;;22.20;49.40;;;;;;5036017;28;20036;-39
2021/05/17 00:49:46;;;;;;;3.20;0.50;;;22.20;49.40;;;;;;5032336;28;20034;-41
2021/05/17 00:52:13;;;;;;;0.80;0.30;;;22.20;49.40;;;;;;5030178;28;20099;-52
2021/05/17 00:54:40;;;;;;;0.73;0.40;;;22.20;49.30;;;;;;5030165;28;20036;-42
2021/05/17 00:57:06;;;;;;;0.45;0.43;;;22.20;49.30;;;;;;5030288;28;20026;-39
2021/05/17 00:59:32;;;;;;;0.60;0.40;;;22.20;49.30;;;;;;5030568;28;20120;-40
2021/05/17 01:01:59;;;;;;;0.57;0.40;;;22.20;49.30;;;;;;5031072;28;20037;-40
2021/05/17 01:04:25;;;;;;;1.15;0.32;;;22.20;49.50;;;;;;5039923;28;20458;-40
2021/05/17 01:06:52;;;;;;;0.60;0.30;;;22.20;49.30;;;;;;5040221;28;20033;-43
2021/05/17 01:09:18;;;;;;;0.63;0.30;;;22.20;49.30;;;;;;5035211;28;20029;-40
2021/05/17 01:11:45;;;;;;;0.75;0.30;;;22.20;49.30;;;;;;5031051;28;20034;-40
2021/05/17 01:14:12;;;;;;;0.30;0.28;;;22.20;49.30;;;;;;5029649;28;20032;-52
2021/05/17 01:16:39;;;;;;;0.50;0.30;;;22.20;49.30;;;;;;5031068;28;20037;-41
2021/05/17 01:19:09;;;;;;;0.98;0.40;;;22.20;49.30;;;;;;5027982;28;20040;-48
2021/05/17 01:21:36;;;;;;;1.50;0.40;;;22.20;49.20;;;;;;5031308;28;20083;-40
2021/05/17 01:24:03;;;;;;;2.47;0.57;;;22.20;49.20;;;;;;5031349;28;20029;-39
2021/05/17 01:26:31;;;;;;;0.65;0.25;;;22.20;49.20;;;;;;5028839;28;20029;-41
2021/05/17 01:29:03;;;;;;;1.90;0.40;;;22.20;49.20;;;;;;5031281;28;20041;-40
2021/05/17 01:31:30;;;;;;;0.22;0.22;;;22.20;49.20;;;;;;5029398;28;20060;-41
2021/05/17 01:33:56;;;;;;;0.55;0.30;;;22.20;49.20;;;;;;5030701;28;20041;-42
2021/05/17 01:36:23;;;;;;;1.40;0.40;;;22.20;49.20;;;;;;5028653;28;20029;-40
2021/05/17 01:38:53;;;;;;;0.73;0.43;;;22.20;49.10;;;;;;5031248;28;20025;-39
2021/05/17 01:41:21;;;;;;;1.20;0.43;;;22.20;49.20;;;;;;5028501;28;20025;-41
2021/05/17 01:43:51;;;;;;;0.57;0.30;;;22.20;49.10;;;;;;5030743;28;20033;-40
2021/05/17 01:46:18;;;;;;;1.25;0.22;;;22.20;49.10;;;;;;5029765;28;20370;-42
2021/05/17 01:48:44;;;;;;;0.93;0.52;;;22.20;49.10;;;;;;5035465;28;20052;-41
2021/05/17 01:51:13;;;;;;;0.95;0.40;;;22.20;49.10;;;;;;5030539;28;20110;-40
2021/05/17 01:53:40;;;;;;;2.10;0.45;;;22.20;49.10;;;;;;5030801;28;20030;-41
2021/05/17 01:56:07;;;;;;;1.55;0.50;;;22.20;49.10;;;;;;5030287;28;20032;-41
2021/05/17 01:58:36;;;;;;;0.60;0.30;;;22.20;49.10;;;;;;5029626;28;20117;-41
2021/05/17 02:01:03;;;;;;;0.95;0.38;;;22.20;49.10;;;;;;5030887;28;20113;-44
2021/05/17 02:03:29;;;;;;;0.65;0.50;;;22.20;49.10;;;;;;5028622;28;20467;-41
2021/05/17 02:05:54;;;;;;;0.63;0.35;;;22.20;49.10;;;;;;5022867;28;20036;-39
2021/05/17 02:08:20;;;;;;;1.63;0.32;;;22.20;49.10;;;;;;5028838;28;20022;-44
2021/05/17 02:10:47;;;;;;;1.10;0.75;;;22.20;49.10;;;;;;5062200;28;20033;-41
2021/05/17 02:13:18;;;;;;;0.70;0.30;;;22.20;49.10;;;;;;5023976;28;20029;-52
2021/05/17 02:15:45;;;;;;;1.23;0.50;;;22.10;49.00;;;;;;5026017;28;20474;-42
2021/05/17 02:18:11;;;;;;;0.55;0.40;;;22.20;49.00;;;;;;5034464;28;20033;-40
2021/05/17 02:20:40;;;;;;;0.73;0.30;;;22.20;49.10;;;;;;5033433;28;20030;-40
2021/05/17 02:23:09;;;;;;;1.75;0.45;;;22.20;49.00;;;;;;5034420;28;20064;-40
2021/05/17 02:25:36;;;;;;;0.50;0.20;;;22.20;49.00;;;;;;5032705;28;20017;-41
2021/05/17 02:28:02;;;;;;;0.45;0.32;;;22.10;49.60;;;;;;5034118;28;20026;-41
2021/05/17 02:30:28;;;;;;;1.00;0.40;;;22.10;49.00;;;;;;5033221;28;20041;-43
2021/05/17 02:32:54;;;;;;;0.77;0.32;;;22.10;48.90;;;;;;5033873;28;20498;-40
2021/05/17 02:35:21;;;;;;;0.43;0.30;;;22.10;48.90;;;;;;5032958;28;20463;-43
2021/05/17 02:37:50;;;;;;;1.17;0.32;;;22.10;48.90;;;;;;5032346;28;20531;-41
2021/05/17 02:40:17;;;;;;;0.40;0.30;;;22.10;48.90;;;;;;5031798;28;20072;-52
2021/05/17 02:42:45;;;;;;;0.50;0.25;;;22.10;48.90;;;;;;5033371;28;20037;-41
2021/05/17 02:45:12;;;;;;;1.25;0.28;;;22.10;48.90;;;;;;5034030;28;20026;-40
2021/05/17 02:47:39;;;;;;;0.90;0.30;;;22.10;48.90;;;;;;5032908;28;20060;-40
2021/05/17 02:50:06;;;;;;;0.95;0.40;;;22.10;48.80;;;;;;5033998;28;20114;-39
2021/05/17 02:52:33;;;;;;;0.63;0.30;;;22.10;48.80;;;;;;5033053;28;20112;-39
2021/05/17 02:55:09;;;;;;;0.30;0.30;;;22.10;49.50;;;;;;5032751;28;20107;-40
2021/05/17 02:58:01;;;;;;;0.95;0.40;;;22.10;48.80;;;;;;5031965;28;20018;-39
2021/05/17 03:00:30;;;;;;;;;;;22.10;48.80;;;;;;5026316;28;20402;-39
2021/05/17 03:03:12;;;;;;;1.25;0.40;;;22.10;48.70;;;;;;5032419;28;20366;-39
2021/05/17 03:05:40;;;;;;;0.63;0.30;;;22.20;48.70;;;;;;5032865;28;20037;-40
2021/05/17 03:08:13;;;;;;;1.30;0.40;;;22.10;48.70;;;;;;5030111;28;20033;-40
2021/05/17 03:10:46;;;;;;;0.85;0.40;;;22.10;48.70;;;;;;5032924;28;20029;-47
2021/05/17 03:13:18;;;;;;;1.00;0.32;;;22.20;48.70;;;;;;5025957;28;20025;-40
2021/05/17 03:15:46;;;;;;;0.28;0.20;;;22.10;48.80;;;;;;5033461;28;20514;-39
2021/05/17 03:18:12;;;;;;;1.08;0.30;;;22.10;49.30;;;;;;5033000;28;20037;-40
2021/05/17 03:20:40;;;;;;;0.60;0.30;;;22.10;48.60;;;;;;5031941;28;20045;-39
2021/05/17 03:23:12;;;;;;;0.77;0.40;;;22.10;48.60;;;;;;5033449;28;20095;-40
2021/05/17 03:25:41;;;;;;;2.63;0.38;;;22.10;48.60;;;;;;5032350;28;20096;-39
2021/05/17 03:28:06;;;;;;;1.20;0.50;;;22.10;48.60;;;;;;5032597;28;20406;-37
2021/05/17 03:30:32;;;;;;;0.30;0.30;;;22.10;48.60;;;;;;5032194;28;20045;-46
2021/05/17 03:32:58;;;;;;;1.10;0.30;;;22.10;48.60;;;;;;5032851;28;20033;-40
2021/05/17 03:35:25;;;;;;;0.57;0.30;;;22.10;48.60;;;;;;5032415;28;20414;-41
2021/05/17 03:37:51;;;;;;;1.08;0.38;;;22.10;48.60;;;;;;5033264;28;20044;-39
2021/05/17 03:40:18;;;;;;;0.22;0.17;;;22.10;48.60;;;;;;5031837;28;20033;-51
2021/05/17 03:42:44;;;;;;;0.50;0.30;;;22.20;48.60;;;;;;5033242;28;20030;-39
2021/05/17 03:45:12;;;;;;;0.50;0.28;;;22.10;48.60;;;;;;5033006;28;20030;-39
2021/05/17 03:47:37;;;;;;;1.58;0.38;;;22.10;48.60;;;;;;5031902;28;20036;-38
2021/05/17 03:50:05;;;;;;;2.15;0.30;;;22.10;48.60;;;;;;5032444;28;20029;-42
2021/05/17 03:52:31;;;;;;;0.70;0.30;;;22.10;48.60;;;;;;5029831;28;20073;-40
2021/05/17 03:54:57;;;;;;;0.40;0.30;;;22.10;48.60;;;;;;5031581;28;20164;-39
2021/05/17 03:57:22;;;;;;;0.40;0.20;;;22.10;48.60;;;;;;5031439;28;20025;-44
2021/05/17 03:59:48;;;;;;;0.75;0.30;;;22.10;48.60;;;;;;5031898;28;20392;-39
2021/05/17 04:02:23;;;;;;;0.28;0.20;;;22.10;48.60;;;;;;5027880;28;20026;-44
2021/05/17 04:15:43;;;;;;;0.22;0.22;;;22.10;48.50;;;;;;5031846;28;20116;-41
2021/05/17 04:18:08;;;;;;;0.70;0.30;;;22.10;48.50;;;;;;5031664;28;20041;-39
2021/05/17 04:20:34;;;;;;;0.60;0.40;;;22.10;48.50;;;;;;5038149;28;20040;-40
2021/05/17 04:23:00;;;;;;;0.65;0.22;;;22.10;48.50;;;;;;5048252;28;20367;-39
2021/05/17 04:25:26;;;;;;;0.52;0.20;;;22.10;48.50;;;;;;5034525;28;20033;-44
2021/05/17 04:27:51;;;;;;;0.60;0.20;;;22.10;48.50;;;;;;5023992;28;20038;-39
2021/05/17 04:30:18;;;;;;;0.45;0.30;;;22.10;48.50;;;;;;5030427;28;20037;-52
2021/05/17 04:32:43;;;;;;;0.30;0.30;;;22.10;48.50;;;;;;5031451;28;20030;-40
2021/05/17 04:35:10;;;;;;;1.20;0.50;;;22.10;48.50;;;;;;5030660;28;20036;-40
2021/05/17 04:37:35;;;;;;;2.47;0.65;;;22.10;48.50;;;;;;5031289;28;20022;-38
2021/05/17 04:40:01;;;;;;;0.57;0.20;;;22.10;48.50;;;;;;5030939;28;20091;-40
2021/05/17 04:42:27;;;;;;;0.88;0.32;;;22.10;48.50;;;;;;5031286;28;20116;-39
2021/05/17 04:44:53;;;;;;;0.75;0.30;;;22.10;48.50;;;;;;5031895;28;20465;-39
2021/05/17 04:47:18;;;;;;;0.60;0.25;;;22.10;48.50;;;;;;5030951;28;20036;-53
2021/05/17 04:49:45;;;;;;;0.35;0.20;;;22.10;48.50;;;;;;5031162;28;20060;-40
2021/05/17 04:52:11;;;;;;;1.40;0.20;;;22.10;48.50;;;;;;5031559;28;20098;-39
2021/05/17 04:54:37;;;;;;;0.82;0.20;;;22.10;48.50;;;;;;5031328;28;20108;-41
2021/05/17 04:57:03;;;;;;;0.28;0.28;;;22.10;48.40;;;;;;5024759;28;20076;-41
2021/05/17 04:59:28;;;;;;;0.70;0.30;;;22.10;48.40;;;;;;5027746;28;20152;-40
2021/05/17 05:01:54;;;;;;;0.57;0.30;;;22.10;48.40;;;;;;5030350;28;20025;-40
2021/05/17 05:04:20;;;;;;;0.95;0.20;;;22.10;48.30;;;;;;5030212;28;20033;-52
2021/05/17 05:06:45;;;;;;;0.20;0.13;;;22.10;48.30;;;;;;5031286;28;20037;-41
2021/05/17 05:09:11;;;;;;;0.55;0.30;;;22.10;48.40;;;;;;5031255;28;20032;-42
2021/05/17 05:11:37;;;;;;;0.50;0.20;;;22.10;48.40;;;;;;5029579;28;20068;-40
2021/05/17 05:14:03;;;;;;;0.47;0.28;;;22.10;48.40;;;;;;5030811;28;20497;-41
2021/05/17 05:16:28;;;;;;;1.65;0.40;;;22.10;48.40;;;;;;5029673;28;20052;-41
2021/05/17 05:18:54;;;;;;;0.63;0.30;;;22.10;48.40;;;;;;5031543;28;20382;-39
2021/05/17 05:21:20;;;;;;;0.77;0.28;;;22.10;48.30;;;;;;5029070;28;20041;-52
2021/05/17 05:23:48;;;;;;;0.57;0.28;;;22.10;48.30;;;;;;5030806;28;20546;-41
2021/05/17 05:26:35;;;;;;;0.20;0.13;;;22.10;48.30;;;;;;5030102;28;20462;-39
2021/05/17 05:31:49;;;;;;;0.38;0.20;;;22.10;48.20;;;;;;5030747;28;20114;-40
2021/05/17 05:34:15;;;;;;;1.55;0.55;;;22.10;48.20;;;;;;5031188;28;20064;-40
2021/05/17 05:36:40;;;;;;;1.45;0.28;;;22.10;48.50;;;;;;5029996;28;20242;-38
2021/05/17 05:39:06;;;;;;;1.38;0.20;;;22.10;48.40;;;;;;5030577;28;20028;-40
2021/05/17 05:41:32;;;;;;;2.88;0.73;;;22.10;48.70;;;;;;5030142;28;20026;-40
2021/05/17 05:43:58;;;;;;;2.42;0.30;;;22.10;49.20;;;;;;5030981;28;20037;-40
2021/05/17 05:46:24;;;;;;;0.77;0.30;;;22.20;49.30;;;;;;5029124;28;20382;-41
2021/05/17 05:48:49;;;;;;;1.95;0.50;;;22.20;49.30;;;;;;5030797;28;20029;-42
2021/05/17 05:51:21;;;;;;;4.78;0.60;;;22.20;49.40;;;;;;5027878;28;20029;-42
2021/05/17 05:53:49;;;;;;;2.92;0.40;;;22.10;48.10;;;;;;5034461;28;20141;-40
2021/05/17 05:56:15;;;;;;;2.20;0.60;;;22.00;47.90;;;;;;5034541;28;20029;-45
2021/05/17 05:58:43;;;;;;;2.90;0.70;;;22.00;48.90;;;;;;5033905;28;20049;-41
2021/05/17 06:01:10;;;;;;;2.88;0.60;;;22.10;49.60;;;;;;5032774;28;20029;-40
2021/05/17 06:03:36;;;;;;;7.20;0.95;;;22.10;50.00;;;;;;5032210;28;20087;-40
2021/05/17 06:06:02;;;;;;;5.22;0.80;;;22.10;49.80;;;;;;5035006;28;20113;-40
2021/05/17 06:08:28;;;;;;;2.92;1.00;;;22.10;49.90;;;;;;5034161;28;20033;-41
2021/05/17 06:10:55;;;;;;;4.03;0.73;;;22.10;50.10;;;;;;5033351;28;20034;-40
2021/05/17 06:13:21;;;;;;;5.32;1.05;;;22.10;49.60;;;;;;5033198;28;20025;-52
2021/05/17 06:15:47;;;;;;;3.50;0.60;;;22.20;49.80;;;;;;5033993;28;20080;-43
2021/05/17 06:18:14;;;;;;;3.85;0.80;;;22.20;49.60;;;;;;5034357;28;20470;-39
2021/05/17 06:20:41;;;;;;;3.10;0.60;;;22.20;49.70;;;;;;5033147;28;20651;-40
2021/05/17 06:23:09;;;;;;;3.42;0.80;;;22.20;49.50;;;;;;5034396;28;20115;-39
2021/05/17 06:25:35;;;;;;;4.93;0.93;;;22.20;49.60;;;;;;5033644;28;20025;-41
2021/05/17 06:28:02;;;;;;;2.03;0.68;;;22.20;49.50;;;;;;5034694;28;20104;-40
2021/05/17 06:30:28;;;;;;;1.63;0.55;;;22.20;49.60;;;;;;5036714;28;20479;-40
2021/05/17 06:32:55;;;;;;;2.10;0.40;;;22.20;49.50;;;;;;5032901;28;20359;-41
2021/05/17 06:35:27;;;;;;;6.88;0.90;;;22.20;49.60;;;;;;5034186;28;20013;-51
2021/05/17 06:37:53;;;;;;;5.00;0.70;;;22.10;49.50;;;;;;5032780;28;20032;-39
2021/05/17 06:40:19;;;;;;;1.20;0.50;;;22.20;49.60;;;;;;5034061;28;20039;-41
2021/05/17 06:42:45;;;;;;;2.60;0.50;;;22.20;49.40;;;;;;5015236;28;20025;-40
2021/05/17 06:45:12;;;;;;;2.53;0.63;;;22.20;49.40;;;;;;5029700;28;20040;-40
2021/05/17 06:47:37;;;;;;;3.28;0.55;;;22.20;49.30;;;;;;5033664;28;20482;-43
2021/05/17 06:50:05;;;;;;;1.25;0.43;;;22.10;49.40;;;;;;5033562;28;20033;-37
2021/05/17 06:52:31;;;;;;;2.33;0.63;;;22.10;49.20;;;;;;5033172;28;20029;-40
2021/05/17 06:55:00;;;;;;;2.20;0.55;;;22.20;49.20;;;;;;5032135;28;20485;-38
2021/05/17 06:58:13;;;;;;;2.95;1.33;;;22.20;49.20;;;;;;5033581;28;20025;-41
2021/05/17 07:00:31;;;;;;;2.28;0.60;;;22.20;49.20;;;;;;5033201;28;20128;-39
2021/05/17 07:03:05;;;;;;;2.45;0.73;;;22.20;49.10;;;;;;5032600;28;20056;-39
2021/05/17 07:05:31;;;;;;;2.13;0.70;;;22.10;49.10;;;;;;5032658;28;20025;-41
2021/05/17 07:13:12;;;;;;;10.38;0.85;;;22.20;49.00;;;;;;5033891;28;20513;-39
2021/05/17 07:15:38;;;;;;;1.98;0.68;;;22.20;49.10;;;;;;5034479;28;20060;-39
2021/05/17 07:18:04;;;;;;;1.23;0.22;;;22.10;49.00;;;;;;5033341;28;20044;-39
2021/05/17 07:25:46;;;;;;;1.58;0.40;;;17.80;49.80;;;;;;5032214;28;20088;-41
2021/05/17 07:28:12;;;;;;;0.77;0.30;;;18.10;49.70;;;;;;5031580;28;20463;-40
2021/05/17 07:30:38;;;;;;;2.50;0.40;;;18.20;49.70;;;;;;5034390;28;20071;-40
2021/05/17 07:33:04;;;;;;;0.15;0.15;;;18.80;48.00;;;;;;5032448;28;20025;-43
2021/05/17 07:35:30;;;;;;;0.85;0.30;;;18.50;48.70;;;;;;5041259;28;20375;-41
2021/05/17 07:37:56;;;;;;;0.80;0.32;;;18.50;48.70;;;;;;5030768;28;20021;-41
2021/05/17 07:40:22;;;;;;;0.47;0.22;;;17.70;48.60;;;;;;5029643;28;20033;-40
2021/05/17 07:42:47;;;;;;;1.23;0.30;;;17.60;49.50;;;;;;5032649;28;20041;-41
2021/05/17 07:45:13;;;;;;;0.50;0.30;;;17.30;50.00;;;;;;5048335;28;20026;-43
2021/05/17 07:47:39;;;;;;;0.52;0.52;;;17.30;50.30;;;;;;5030874;28;20030;-41
2021/05/17 07:50:05;;;;;;;1.02;0.40;;;17.40;49.50;;;;;;5032808;28;20030;-40
2021/05/17 07:52:30;;;;;;;2.50;0.30;;;17.30;49.90;;;;;;5031834;28;20041;-43
2021/05/17 07:54:56;;;;;;;0.85;0.40;;;17.60;49.30;;;;;;5032846;28;20025;-40
2021/05/17 07:57:23;;;;;;;0.45;0.22;;;17.40;48.70;;;;;;5032443;28;20113;-49
2021/05/17 07:59:49;;;;;;;2.65;0.45;;;17.60;48.30;;;;;;5035797;28;20505;-41
2021/05/17 08:02:20;;;;;;;1.00;0.30;;;17.70;47.80;;;;;;5033764;28;20108;-40
2021/05/17 08:04:48;;;;;;;1.30;0.50;;;17.70;46.50;;;;;;5031945;28;20107;-42
2021/05/17 08:07:14;;;;;;;1.63;0.50;;;17.20;47.80;;;;;;5032484;28;20057;-41
2021/05/17 08:09:39;;;;;;;1.02;0.30;;;16.80;48.80;;;;;;5031793;28;20123;-40
2021/05/17 08:12:06;;;;;;;1.08;0.30;;;17.40;47.40;;;;;;5032137;28;20097;-40
2021/05/17 08:14:31;;;;;;;2.35;0.45;;;16.90;48.90;;;;;;5031571;28;20095;-41
2021/05/17 08:16:57;;;;;;;1.20;0.30;;;17.00;48.70;;;;;;5032186;28;20945;-40
2021/05/17 08:19:23;;;;;;;2.47;0.28;;;16.50;50.70;;;;;;5011323;28;20471;-51
2021/05/17 08:21:48;;;;;;;7.18;0.38;;;17.00;49.60;;;;;;5028156;28;20034;-41
2021/05/17 08:24:14;;;;;;;1.17;0.30;;;17.40;48.80;;;;;;5030662;28;20025;-40
2021/05/17 08:26:41;;;;;;;3.97;0.63;;;17.70;48.00;;;;;;5030971;28;20036;-39
2021/05/17 08:29:07;;;;;;;1.67;0.60;;;17.60;48.30;;;;;;5032682;28;20462;-40
2021/05/17 08:31:35;;;;;;;0.63;0.40;;;18.00;47.20;;;;;;5032528;28;20036;-41
2021/05/17 08:34:00;;;;;;;3.55;0.65;;;18.70;45.80;;;;;;5027046;28;20021;-39
2021/05/17 08:36:26;;;;;;;1.58;0.43;;;19.30;45.10;;;;;;5030070;28;20018;-51
2021/05/17 08:38:52;;;;;;;1.85;0.50;;;19.70;44.90;;;;;;5031874;28;20096;-40
2021/05/17 08:41:18;;;;;;;1.77;0.43;;;20.00;44.50;;;;;;5032107;28;20033;-46
2021/05/17 08:43:44;;;;;;;0.77;0.40;;;20.10;44.30;;;;;;5032921;28;20620;-41
2021/05/17 08:46:12;;;;;;;1.58;0.47;;;20.30;44.30;;;;;;5032007;28;20382;-42
2021/05/17 08:48:48;;;;;;;1.17;0.50;;;20.40;44.20;;;;;;5031660;28;20033;-41
2021/05/17 08:51:16;;;;;;;2.88;0.40;;;20.50;44.20;;;;;;5030136;28;20040;-40
2021/05/17 08:53:45;;;;;;;1.08;0.30;;;20.50;44.00;;;;;;5034065;28;20034;-42
2021/05/17 08:56:11;;;;;;;6.15;0.80;;;20.60;44.70;;;;;;5032244;28;20026;-40
2021/05/17 08:58:37;;;;;;;3.03;0.50;;;20.70;44.00;;;;;;5032802;28;20041;-42
2021/05/17 09:01:04;;;;;;;6.20;0.50;;;20.80;44.10;;;;;;5030123;28;20151;-39
2021/05/17 09:03:30;;;;;;;3.90;0.32;;;20.80;43.80;;;;;;5031831;28;20022;-47
2021/05/17 09:05:55;;;;;;;2.95;0.40;;;20.90;43.80;;;;;;5030849;28;20029;-40
2021/05/17 09:08:25;;;;;;;1.40;0.30;;;20.90;43.80;;;;;;5031669;28;20030;-41
2021/05/17 09:10:50;;;;;;;0.60;0.40;;;20.90;43.80;;;;;;5031512;28;20041;-40
2021/05/17 09:13:18;;;;;;;2.67;0.40;;;21.00;43.70;;;;;;5039674;28;20035;-41
2021/05/17 09:15:49;;;;;;;3.60;0.50;;;21.00;43.80;;;;;;5033138;28;20086;-41
2021/05/17 09:18:22;;;;;;;2.20;0.47;;;21.00;43.70;;;;;;5030357;28;20083;-40
2021/05/17 09:20:50;;;;;;;2.28;0.43;;;21.10;43.80;;;;;;5029802;28;20603;-41
2021/05/17 09:23:25;;;;;;;1.73;0.40;;;21.10;43.90;;;;;;5030953;28;20029;-43
2021/05/17 09:26:15;;;;;;;2.65;0.68;;;21.10;43.80;;;;;;5047608;28;20116;-42
2021/05/17 09:28:40;;;;;;;1.95;0.40;;;21.10;43.90;;;;;;5028078;28;20044;-41
2021/05/17 09:31:15;;;;;;;2.20;0.70;;;21.10;44.00;;;;;;5036068;28;20041;-43
2021/05/17 09:33:47;;;;;;;2.72;0.43;;;21.20;44.20;;;;;;5029031;28;20034;-45
2021/05/17 09:36:31;;;;;;;1.48;0.40;;;21.20;44.20;;;;;;5035637;28;20036;-40
2021/05/17 09:39:07;;;;;;;2.47;0.50;;;21.20;44.10;;;;;;5029944;28;20471;-40
2021/05/17 09:41:41;;;;;;;3.25;0.77;;;21.20;44.10;;;;;;5028915;28;20467;-39
2021/05/17 09:44:08;;;;;;;1.42;0.40;;;21.30;44.10;;;;;;5023641;28;20095;-40
2021/05/17 09:47:05;;;;;;;1.75;0.55;;;21.30;44.00;;;;;;5032875;28;20497;-41
2021/05/17 09:49:32;;;;;;;1.67;0.50;;;21.30;43.80;;;;;;5023350;28;20390;-42
2021/05/17 09:52:18;;;;;;;0.30;0.20;;;21.30;44.00;;;;;;5029679;28;20029;-45
2021/05/17 09:54:52;;;;;;;1.60;0.50;;;21.30;43.80;;;;;;5030431;28;20070;-41
2021/05/17 09:57:26;;;;;;;1.60;0.40;;;21.40;44.70;;;;;;5029446;28;20414;-41
2021/05/17 09:59:54;;;;;;;2.92;0.32;;;21.40;44.10;;;;;;5026974;28;20053;-45
2021/05/17 10:02:40;;;;;;;1.15;0.60;;;21.30;44.00;;;;;;5028260;28;20053;-40
2021/05/17 10:05:17;;;;;;;0.65;0.32;;;21.40;44.30;;;;;;5029935;28;20486;-42
2021/05/17 10:07:44;;;;;;;11.65;0.60;;;21.40;44.20;;;;;;5031823;28;20033;-41
2021/05/17 10:10:11;;;;;;;2.85;0.68;;;21.40;44.60;;;;;;5030947;28;20091;-40
2021/05/17 10:12:38;;;;;;;2.72;0.40;;;21.40;45.30;;;;;;5030440;28;20037;-41
2021/05/17 10:15:06;;;;;;;3.65;0.52;;;21.40;45.20;;;;;;5030814;28;20029;-41
2021/05/17 10:17:35;;;;;;;1.98;0.40;;;21.40;46.40;;;;;;5029957;28;20087;-40
2021/05/17 10:20:03;;;;;;;1.70;0.30;;;21.40;47.30;;;;;;5030623;28;20391;-41
2021/05/17 10:22:29;;;;;;;7.80;0.77;;;21.40;47.60;;;;;;5025992;28;20033;-53
2021/05/17 10:25:00;;;;;;;1.98;0.38;;;21.40;50.00;;;;;;5027862;28;20036;-49
2021/05/17 10:27:29;;;;;;;1.27;0.30;;;21.40;50.00;;;;;;5028307;28;20105;-39
2021/05/17 10:30:08;;;;;;;3.88;0.40;;;21.40;50.00;;;;;;5028278;28;20120;-39
2021/05/17 10:32:52;;;;;;;1.10;0.28;;;21.50;50.90;;;;;;5028548;28;20437;-41
2021/05/17 10:35:21;;;;;;;2.25;0.30;;;21.50;50.80;;;;;;5029904;28;20033;-46
2021/05/17 10:37:48;;;;;;;2.78;1.10;;;21.50;51.10;;;;;;5030072;28;20038;-39
2021/05/17 10:40:40;;;;;;;1.33;0.30;;;21.50;51.50;;;;;;5033489;28;20022;-38
2021/05/17 10:43:21;;;;;;;0.70;0.20;;;21.60;51.60;;;;;;5033291;28;20026;-40
2021/05/17 10:48:33;;;;;;;1.70;0.73;;;21.50;52.60;;;;;;5033103;28;20108;-41
2021/05/17 10:51:19;;;;;;;1.75;0.47;;;21.50;53.60;;;;;;5033975;28;20026;-38
2021/05/17 10:53:58;;;;;;;3.13;0.38;;;21.60;54.00;;;;;;5033238;28;20037;-39
2021/05/17 10:56:40;;;;;;;2.97;0.57;;;21.60;54.20;;;;;;5031896;28;20028;-41
2021/05/17 11:01:54;;;;;;;3.15;0.50;;;21.60;54.80;;;;;;5030846;28;20064;-42
2021/05/17 11:04:38;;;;;;;1.20;0.40;;;21.60;54.80;;;;;;5031928;28;20086;-39
2021/05/17 11:07:09;;;;;;;2.00;0.30;;;21.60;54.70;;;;;;5032710;28;20025;-41
2021/05/17 11:09:49;;;;;;;0.50;0.30;;;21.60;55.00;;;;;;5032235;28;20030;-41
2021/05/17 11:12:39;;;;;;;2.30;0.50;;;21.60;55.00;;;;;;5032437;28;20041;-47
2021/05/17 11:15:06;;;;;;;1.85;0.32;;;21.70;55.20;;;;;;5027471;28;20029;-39
2021/05/17 11:17:51;;;;;;;0.90;0.30;;;21.70;55.10;;;;;;5031864;28;20084;-52
2021/05/17 11:20:39;;;;;;;1.35;0.43;;;21.70;55.20;;;;;;5032652;28;20092;-39
2021/05/17 11:23:11;;;;;;;1.08;0.52;;;21.70;55.30;;;;;;5031343;28;20418;-38
2021/05/17 11:25:47;;;;;;;;;;;21.70;55.30;;;;;;5030060;28;20037;-40
2021/05/17 11:28:14;;;;;;;1.70;0.38;;;21.70;55.60;;;;;;5061604;28;20004;-41
2021/05/17 11:30:41;;;;;;;1.48;0.45;;;21.70;55.70;;;;;;5031605;28;20046;-38
2021/05/17 11:33:18;;;;;;;1.65;0.20;;;21.70;55.80;;;;;;5031980;28;20092;-39
2021/05/17 11:35:59;;;;;;;1.25;0.30;;;21.70;55.90;;;;;;5030730;28;20029;-39
2021/05/17 11:38:25;;;;;;;1.85;0.35;;;21.70;56.20;;;;;;5031248;28;20032;-39
2021/05/17 11:40:51;;;;;;;0.88;0.43;;;21.70;56.40;;;;;;5047273;28;20029;-39
2021/05/17 11:43:17;;;;;;;4.43;0.63;;;21.70;56.20;;;;;;5031796;28;20056;-39
2021/05/17 11:45:44;;;;;;;0.50;0.30;;;21.70;56.40;;;;;;5030361;28;20033;-38
2021/05/17 11:48:10;;;;;;;0.85;0.40;;;21.70;56.50;;;;;;5030857;28;20034;-38
2021/05/17 11:50:36;;;;;;;2.20;0.38;;;21.70;56.40;;;;;;5030916;28;20037;-41
2021/05/17 11:53:02;;;;;;;0.82;0.30;;;21.70;56.50;;;;;;5032607;28;20033;-39
2021/05/17 11:55:28;;;;;;;0.88;0.57;;;21.70;56.60;;;;;;5031717;28;20121;-38
2021/05/17 11:57:55;;;;;;;1.08;0.30;;;21.70;56.60;;;;;;5031716;28;20467;-45
2021/05/17 12:00:24;;;;;;;1.00;0.40;;;21.70;56.50;;;;;;5031502;28;20045;-43
2021/05/17 12:02:52;;;;;;;0.75;0.40;;;21.70;56.30;;;;;;5031622;28;20060;-39
2021/05/17 12:05:19;;;;;;;1.90;0.25;;;21.80;56.40;;;;;;5030399;28;20038;-43
2021/05/17 12:07:53;;;;;;;2.88;0.50;;;21.80;56.30;;;;;;5030010;28;20029;-39
2021/05/17 12:10:21;;;;;;;1.45;0.45;;;21.80;56.30;;;;;;5028118;28;20052;-40
2021/05/17 12:12:49;;;;;;;0.82;0.30;;;21.80;56.20;;;;;;5031189;28;20034;-38
2021/05/17 12:15:19;;;;;;;1.65;0.30;;;21.80;56.50;;;;;;5030468;28;20119;-40
2021/05/17 12:17:45;;;;;;;1.63;0.45;;;21.80;56.50;;;;;;5031344;28;20065;-40
2021/05/17 12:20:14;;;;;;;1.52;0.60;;;21.80;56.80;;;;;;5030597;28;20495;-39
2021/05/17 12:22:45;;;;;;;2.70;0.55;;;21.80;56.10;;;;;;5031558;28;20033;-38
2021/05/17 12:25:18;;;;;;;1.35;0.30;;;21.80;56.90;;;;;;5030069;28;20402;-42
2021/05/17 12:27:45;;;;;;;1.30;0.50;;;21.80;56.70;;;;;;5030386;28;20068;-39
2021/05/17 12:30:19;;;;;;;0.90;0.57;;;21.80;56.50;;;;;;5037618;28;20490;-39
2021/05/17 12:32:46;;;;;;;0.40;0.30;;;21.80;56.20;;;;;;5031481;28;20060;-40
2021/05/17 12:35:30;;;;;;;2.60;0.30;;;21.80;55.50;;;;;;5030213;28;20112;-40
2021/05/17 12:38:12;;;;;;;1.48;0.77;;;21.80;55.10;;;;;;5031857;28;20068;-40
2021/05/17 12:40:38;;;;;;;3.78;0.55;;;21.80;54.70;;;;;;5034639;28;20084;-41
2021/05/17 12:43:17;;;;;;;0.80;0.20;;;21.90;54.50;;;;;;5032284;28;20426;-39
2021/05/17 12:45:47;;;;;;;0.80;0.35;;;21.90;54.60;;;;;;5023791;28;20029;-40
2021/05/17 12:48:32;;;;;;;1.33;0.30;;;21.90;55.00;;;;;;5031285;28;20033;-41
2021/05/17 12:51:11;;;;;;;0.73;0.30;;;21.90;55.70;;;;;;5032273;28;20037;-39
2021/05/17 12:53:37;;;;;;;1.30;0.30;;;21.90;55.60;;;;;;5029824;28;20037;-41
2021/05/17 12:56:03;;;;;;;1.77;0.40;;;21.90;55.50;;;;;;5031497;28;20033;-38
2021/05/17 12:58:40;;;;;;;3.60;0.30;;;21.90;55.70;;;;;;5031199;28;20080;-39
2021/05/17 13:01:15;;;;;;;2.47;0.50;;;21.90;55.50;;;;;;5037043;28;20053;-39
2021/05/17 13:03:47;;;;;;;0.22;0.22;;;21.90;55.70;;;;;;5025595;28;20284;-38
2021/05/17 13:06:26;;;;;;;1.02;0.30;;;21.90;55.80;;;;;;5042855;28;20417;-39
2021/05/17 13:09:02;;;;;;;1.98;0.47;;;21.90;55.80;;;;;;5048026;28;20616;-39
2021/05/17 13:11:29;;;;;;;0.68;0.30;;;21.90;55.90;;;;;;5029827;28;20538;-40
2021/05/17 13:14:04;;;;;;;1.77;0.50;;;21.90;55.90;;;;;;5029569;28;20025;-40
2021/05/17 13:16:41;;;;;;;0.65;0.40;;;21.90;55.60;;;;;;5031295;28;20068;-40
2021/05/17 13:21:53;;;;;;;0.77;0.57;;;21.90;55.10;;;;;;5030397;28;20045;-41
2021/05/17 13:32:42;;;;;;;2.30;0.30;;;22.00;54.40;;;;;;5008078;28;20680;-52
2021/05/17 13:35:10;;;;;;;1.55;0.60;;;22.00;54.30;;;;;;5001997;28;20026;-40
2021/05/17 13:37:37;;;;;;;2.72;0.30;;;22.00;54.80;;;;;;4989303;28;20041;-51